Plant City, FL (33563)

7:33 PM EDT on July 24, 2016 (GMT -0400)
Plant City Farm & Flea Market | | Change Station

Elev 131 ft 28.05 °N, 82.13 °W | Updated 3 seconds ago

Light Rain
Light Rain
76.3 °F
Feels Like 76 °F
N
2.5
Wind Variable Wind from ENE
Gusts 2.5 mph

Today
High -- | Low -- °F
--% Chance of Precip.
Yesterday
High -- | Low -- °F
Precip. -- in
Pressure 30.06 in
Visibility 10.0 miles
Clouds Scattered Clouds 2300 ft
Mostly Cloudy 2900 ft
Mostly Cloudy 4100 ft
Heat Index 76 °F
Dew Point 75 °F
Humidity 97%
Rainfall 0.05 in
Snow Depth Not available.
6:47 AM 8:22 PM
Waning Gibbous, 72% visible
METAR KPCM 242315Z AUTO 18004KT 10SM -RA SCT023 BKN029 BKN041 24/23 A3006 RMK AO2 P0001
Pressure 30.06 in
Visibility 10.0 miles
Clouds Scattered Clouds 2300 ft
Mostly Cloudy 2900 ft
Mostly Cloudy 4100 ft
Heat Index 76 °F
Dew Point 75 °F
Humidity 97%
Rainfall 0.05 in
Snow Depth Not available.
6:47 AM 8:22 PM
Waning Gibbous, 72% visible
METAR KPCM 242315Z AUTO 18004KT 10SM -RA SCT023 BKN029 BKN041 24/23 A3006 RMK AO2 P0001

10-Day Weather Forecast

Almanac

Astronomy

Jul. 24, 2016 Rise Set
Actual Time
Civil Twilight
Nautical Twilight
Astronomical Twilight
Moon
Length of Visible Light
Length of Day
Tomorrow will be .
, % of the Moon is Illuminated

Today's Extremes

State Highs State Lows

Community

WunderPhotos

Upload Photos

1,927,205 photos uploaded!

WunderBlog® & News

Nearby

Air Quality

  Air Quality AQ Index Pollutant
Not available.

Snow Depth

Station Depth Elevation

Earthquake Activity

City Distance Mag. Time & Date
Minimum magnitude displayed is 2.5.

Coastal Water Temperatures

Place Temperature

Stations

Nearby Weather Stations

Station Location Temp. Windchill Dew Point Humidity Wind Precip. Elev Updated Type
                   

Watches & Warnings

There are currently no watches in effect.